sensor_id;sensor_type;location;lat;lon;timestamp;P1;durP1;ratioP1;P2;durP2;ratioP2
16826;SDS011;8530;49.540;8.576;2023-06-10T00:00:20;7.80;;;6.60;;
16826;SDS011;8530;49.540;8.576;2023-06-10T00:02:47;8.10;;;6.90;;
16826;SDS011;8530;49.540;8.576;2023-06-10T00:05:14;10.10;;;7.47;;
16826;SDS011;8530;49.540;8.576;2023-06-10T00:07:43;7.10;;;6.40;;
16826;SDS011;8530;49.540;8.576;2023-06-10T00:10:11;7.20;;;6.50;;
16826;SDS011;8530;49.540;8.576;2023-06-10T00:12:38;13.83;;;6.57;;
16826;SDS011;8530;49.540;8.576;2023-06-10T00:15:05;8.13;;;7.33;;
16826;SDS011;8530;49.540;8.576;2023-06-10T00:17:33;10.03;;;7.90;;
16826;SDS011;8530;49.540;8.576;2023-06-10T00:20:04;11.30;;;7.87;;
16826;SDS011;8530;49.540;8.576;2023-06-10T00:22:34;9.43;;;8.00;;
16826;SDS011;8530;49.540;8.576;2023-06-10T00:25:02;7.97;;;7.17;;
16826;SDS011;8530;49.540;8.576;2023-06-10T00:27:29;8.83;;;7.10;;
16826;SDS011;8530;49.540;8.576;2023-06-10T00:30:00;8.70;;;7.07;;
16826;SDS011;8530;49.540;8.576;2023-06-10T00:32:27;7.57;;;6.80;;
16826;SDS011;8530;49.540;8.576;2023-06-10T00:34:53;8.33;;;7.53;;
16826;SDS011;8530;49.540;8.576;2023-06-10T00:37:20;8.27;;;7.27;;
16826;SDS011;8530;49.540;8.576;2023-06-10T00:39:47;7.50;;;6.80;;
16826;SDS011;8530;49.540;8.576;2023-06-10T00:42:15;9.50;;;7.67;;
16826;SDS011;8530;49.540;8.576;2023-06-10T00:44:42;10.30;;;7.67;;
16826;SDS011;8530;49.540;8.576;2023-06-10T00:47:09;9.60;;;7.60;;
16826;SDS011;8530;49.540;8.576;2023-06-10T00:49:36;7.40;;;6.70;;
16826;SDS011;8530;49.540;8.576;2023-06-10T00:52:03;7.53;;;6.77;;
16826;SDS011;8530;49.540;8.576;2023-06-10T00:54:32;7.93;;;7.13;;
16826;SDS011;8530;49.540;8.576;2023-06-10T00:57:00;11.33;;;6.20;;
16826;SDS011;8530;49.540;8.576;2023-06-10T00:59:28;6.80;;;5.83;;
16826;SDS011;8530;49.540;8.576;2023-06-10T01:01:57;6.60;;;6.00;;
16826;SDS011;8530;49.540;8.576;2023-06-10T01:04:25;11.20;;;5.93;;
16826;SDS011;8530;49.540;8.576;2023-06-10T01:06:54;8.50;;;6.77;;
16826;SDS011;8530;49.540;8.576;2023-06-10T01:09:32;6.67;;;5.97;;
16826;SDS011;8530;49.540;8.576;2023-06-10T01:12:17;7.30;;;6.60;;
16826;SDS011;8530;49.540;8.576;2023-06-10T01:14:52;8.50;;;6.60;;
16826;SDS011;8530;49.540;8.576;2023-06-10T01:17:19;8.13;;;6.30;;
16826;SDS011;8530;49.540;8.576;2023-06-10T01:19:52;7.87;;;6.17;;
16826;SDS011;8530;49.540;8.576;2023-06-10T01:22:22;6.60;;;5.90;;
16826;SDS011;8530;49.540;8.576;2023-06-10T01:24:50;9.00;;;6.63;;
16826;SDS011;8530;49.540;8.576;2023-06-10T01:27:18;6.87;;;6.17;;
16826;SDS011;8530;49.540;8.576;2023-06-10T01:29:49;8.60;;;6.03;;
16826;SDS011;8530;49.540;8.576;2023-06-10T01:32:23;12.00;;;7.13;;
16826;SDS011;8530;49.540;8.576;2023-06-10T01:34:55;11.23;;;7.70;;
16826;SDS011;8530;49.540;8.576;2023-06-10T01:37:25;8.00;;;6.33;;
16826;SDS011;8530;49.540;8.576;2023-06-10T01:39:53;10.13;;;6.30;;
16826;SDS011;8530;49.540;8.576;2023-06-10T01:42:23;6.47;;;5.77;;
16826;SDS011;8530;49.540;8.576;2023-06-10T01:44:50;8.33;;;7.23;;
16826;SDS011;8530;49.540;8.576;2023-06-10T01:47:17;7.43;;;6.60;;
16826;SDS011;8530;49.540;8.576;2023-06-10T01:49:43;7.43;;;6.60;;
16826;SDS011;8530;49.540;8.576;2023-06-10T01:52:11;7.10;;;6.50;;
16826;SDS011;8530;49.540;8.576;2023-06-10T01:54:39;7.90;;;6.50;;
16826;SDS011;8530;49.540;8.576;2023-06-10T01:57:05;8.10;;;6.73;;
16826;SDS011;8530;49.540;8.576;2023-06-10T01:59:32;5.97;;;5.37;;
16826;SDS011;8530;49.540;8.576;2023-06-10T02:01:59;6.00;;;5.50;;
16826;SDS011;8530;49.540;8.576;2023-06-10T02:04:26;7.20;;;6.50;;
16826;SDS011;8530;49.540;8.576;2023-06-10T02:06:52;7.00;;;6.33;;
16826;SDS011;8530;49.540;8.576;2023-06-10T02:09:20;6.83;;;6.03;;
16826;SDS011;8530;49.540;8.576;2023-06-10T02:11:49;9.80;;;7.40;;
16826;SDS011;8530;49.540;8.576;2023-06-10T02:14:15;8.40;;;7.30;;
16826;SDS011;8530;49.540;8.576;2023-06-10T02:16:43;8.47;;;6.57;;
16826;SDS011;8530;49.540;8.576;2023-06-10T02:19:11;9.90;;;8.20;;
16826;SDS011;8530;49.540;8.576;2023-06-10T02:21:38;7.00;;;6.30;;
16826;SDS011;8530;49.540;8.576;2023-06-10T02:24:05;7.17;;;6.50;;
16826;SDS011;8530;49.540;8.576;2023-06-10T02:26:32;8.40;;;6.87;;
16826;SDS011;8530;49.540;8.576;2023-06-10T02:29:00;9.70;;;7.10;;
16826;SDS011;8530;49.540;8.576;2023-06-10T02:31:28;10.90;;;6.67;;
16826;SDS011;8530;49.540;8.576;2023-06-10T02:33:55;14.10;;;7.30;;
16826;SDS011;8530;49.540;8.576;2023-06-10T02:36:21;8.00;;;6.10;;
16826;SDS011;8530;49.540;8.576;2023-06-10T02:38:49;15.60;;;7.53;;
16826;SDS011;8530;49.540;8.576;2023-06-10T02:41:15;9.50;;;7.57;;
16826;SDS011;8530;49.540;8.576;2023-06-10T02:43:42;14.73;;;6.43;;
16826;SDS011;8530;49.540;8.576;2023-06-10T02:46:10;8.77;;;6.33;;
16826;SDS011;8530;49.540;8.576;2023-06-10T02:48:40;8.97;;;8.27;;
16826;SDS011;8530;49.540;8.576;2023-06-10T02:51:07;8.47;;;7.57;;
16826;SDS011;8530;49.540;8.576;2023-06-10T02:53:34;8.80;;;7.90;;
16826;SDS011;8530;49.540;8.576;2023-06-10T02:56:01;8.70;;;7.70;;
16826;SDS011;8530;49.540;8.576;2023-06-10T02:58:28;8.53;;;7.80;;
16826;SDS011;8530;49.540;8.576;2023-06-10T03:00:54;9.27;;;8.37;;
16826;SDS011;8530;49.540;8.576;2023-06-10T03:03:23;8.73;;;7.97;;
16826;SDS011;8530;49.540;8.576;2023-06-10T03:05:50;8.50;;;7.60;;
16826;SDS011;8530;49.540;8.576;2023-06-10T03:08:17;9.63;;;8.73;;
16826;SDS011;8530;49.540;8.576;2023-06-10T03:10:44;9.70;;;8.23;;
16826;SDS011;8530;49.540;8.576;2023-06-10T03:13:10;8.63;;;7.83;;
16826;SDS011;8530;49.540;8.576;2023-06-10T03:15:37;9.97;;;7.60;;
16826;SDS011;8530;49.540;8.576;2023-06-10T03:18:05;9.97;;;7.40;;
16826;SDS011;8530;49.540;8.576;2023-06-10T03:20:34;9.63;;;6.70;;
16826;SDS011;8530;49.540;8.576;2023-06-10T03:23:03;8.17;;;7.47;;
16826;SDS011;8530;49.540;8.576;2023-06-10T03:25:31;7.43;;;6.70;;
16826;SDS011;8530;49.540;8.576;2023-06-10T03:27:58;8.87;;;7.73;;
16826;SDS011;8530;49.540;8.576;2023-06-10T03:30:25;8.90;;;7.67;;
16826;SDS011;8530;49.540;8.576;2023-06-10T03:32:52;13.47;;;8.33;;
16826;SDS011;8530;49.540;8.576;2023-06-10T03:35:18;10.67;;;7.63;;
16826;SDS011;8530;49.540;8.576;2023-06-10T03:37:47;8.57;;;7.80;;
16826;SDS011;8530;49.540;8.576;2023-06-10T03:40:14;10.77;;;7.77;;
16826;SDS011;8530;49.540;8.576;2023-06-10T03:42:40;8.93;;;8.03;;
16826;SDS011;8530;49.540;8.576;2023-06-10T03:45:09;12.20;;;7.37;;
16826;SDS011;8530;49.540;8.576;2023-06-10T03:47:36;8.30;;;7.47;;
16826;SDS011;8530;49.540;8.576;2023-06-10T03:50:09;9.27;;;8.37;;
16826;SDS011;8530;49.540;8.576;2023-06-10T03:52:37;9.07;;;7.77;;
16826;SDS011;8530;49.540;8.576;2023-06-10T03:55:06;9.60;;;7.63;;
16826;SDS011;8530;49.540;8.576;2023-06-10T03:57:33;8.80;;;8.00;;
16826;SDS011;8530;49.540;8.576;2023-06-10T04:00:00;10.73;;;9.40;;
16826;SDS011;8530;49.540;8.576;2023-06-10T04:02:31;10.63;;;9.53;;
16826;SDS011;8530;49.540;8.576;2023-06-10T04:04:59;9.03;;;8.17;;
16826;SDS011;8530;49.540;8.576;2023-06-10T04:07:27;9.13;;;7.90;;
16826;SDS011;8530;49.540;8.576;2023-06-10T04:09:53;9.17;;;7.90;;
16826;SDS011;8530;49.540;8.576;2023-06-10T04:12:21;8.47;;;7.60;;
16826;SDS011;8530;49.540;8.576;2023-06-10T04:14:48;9.10;;;8.20;;
16826;SDS011;8530;49.540;8.576;2023-06-10T04:17:16;9.50;;;8.50;;
16826;SDS011;8530;49.540;8.576;2023-06-10T04:19:43;9.03;;;7.80;;
16826;SDS011;8530;49.540;8.576;2023-06-10T04:22:09;10.40;;;9.40;;
16826;SDS011;8530;49.540;8.576;2023-06-10T04:24:36;9.50;;;8.50;;
16826;SDS011;8530;49.540;8.576;2023-06-10T04:27:03;11.80;;;9.47;;
16826;SDS011;8530;49.540;8.576;2023-06-10T04:29:31;8.90;;;8.00;;
16826;SDS011;8530;49.540;8.576;2023-06-10T04:31:58;9.40;;;8.53;;
16826;SDS011;8530;49.540;8.576;2023-06-10T04:34:26;12.93;;;11.43;;
16826;SDS011;8530;49.540;8.576;2023-06-10T04:36:53;14.13;;;9.50;;
16826;SDS011;8530;49.540;8.576;2023-06-10T04:39:21;10.37;;;9.37;;
16826;SDS011;8530;49.540;8.576;2023-06-10T04:41:48;10.33;;;9.33;;
16826;SDS011;8530;49.540;8.576;2023-06-10T04:44:14;10.63;;;9.40;;
16826;SDS011;8530;49.540;8.576;2023-06-10T04:46:42;10.77;;;9.77;;
16826;SDS011;8530;49.540;8.576;2023-06-10T04:49:09;10.80;;;9.80;;
16826;SDS011;8530;49.540;8.576;2023-06-10T04:51:36;12.83;;;9.87;;
16826;SDS011;8530;49.540;8.576;2023-06-10T04:54:03;11.43;;;10.27;;
16826;SDS011;8530;49.540;8.576;2023-06-10T04:56:30;11.17;;;9.87;;
16826;SDS011;8530;49.540;8.576;2023-06-10T04:58:57;10.03;;;9.13;;
16826;SDS011;8530;49.540;8.576;2023-06-10T05:01:23;10.10;;;9.13;;
16826;SDS011;8530;49.540;8.576;2023-06-10T05:03:51;11.40;;;10.30;;
16826;SDS011;8530;49.540;8.576;2023-06-10T05:06:18;12.23;;;10.93;;
16826;SDS011;8530;49.540;8.576;2023-06-10T05:08:45;10.73;;;9.67;;
16826;SDS011;8530;49.540;8.576;2023-06-10T05:11:12;11.50;;;10.20;;
16826;SDS011;8530;49.540;8.576;2023-06-10T05:13:38;11.63;;;10.43;;
16826;SDS011;8530;49.540;8.576;2023-06-10T05:16:07;14.20;;;9.60;;
16826;SDS011;8530;49.540;8.576;2023-06-10T05:18:34;11.30;;;10.20;;
16826;SDS011;8530;49.540;8.576;2023-06-10T05:21:03;17.07;;;10.67;;
16826;SDS011;8530;49.540;8.576;2023-06-10T05:23:30;13.77;;;11.37;;
16826;SDS011;8530;49.540;8.576;2023-06-10T05:25:57;12.33;;;9.97;;
16826;SDS011;8530;49.540;8.576;2023-06-10T05:28:24;12.37;;;11.07;;
16826;SDS011;8530;49.540;8.576;2023-06-10T05:30:51;12.47;;;10.63;;
16826;SDS011;8530;49.540;8.576;2023-06-10T05:33:17;9.63;;;8.73;;
16826;SDS011;8530;49.540;8.576;2023-06-10T05:35:44;9.37;;;8.47;;
16826;SDS011;8530;49.540;8.576;2023-06-10T05:38:12;14.23;;;8.97;;
16826;SDS011;8530;49.540;8.576;2023-06-10T05:40:39;10.30;;;8.63;;
16826;SDS011;8530;49.540;8.576;2023-06-10T05:43:06;9.87;;;8.97;;
16826;SDS011;8530;49.540;8.576;2023-06-10T05:45:34;8.90;;;8.00;;
16826;SDS011;8530;49.540;8.576;2023-06-10T05:48:01;9.53;;;8.60;;
16826;SDS011;8530;49.540;8.576;2023-06-10T05:50:28;9.73;;;7.28;;
16826;SDS011;8530;49.540;8.576;2023-06-10T05:52:55;9.50;;;7.03;;
16826;SDS011;8530;49.540;8.576;2023-06-10T05:55:23;7.88;;;6.80;;
16826;SDS011;8530;49.540;8.576;2023-06-10T05:57:57;6.85;;;6.25;;
16826;SDS011;8530;49.540;8.576;2023-06-10T06:00:24;7.95;;;6.97;;
16826;SDS011;8530;49.540;8.576;2023-06-10T06:02:51;11.85;;;6.68;;
16826;SDS011;8530;49.540;8.576;2023-06-10T06:05:19;6.75;;;5.95;;
16826;SDS011;8530;49.540;8.576;2023-06-10T06:07:45;6.90;;;6.20;;
16826;SDS011;8530;49.540;8.576;2023-06-10T06:10:12;8.80;;;6.43;;
16826;SDS011;8530;49.540;8.576;2023-06-10T06:12:40;7.50;;;6.68;;
16826;SDS011;8530;49.540;8.576;2023-06-10T06:15:07;6.22;;;5.63;;
16826;SDS011;8530;49.540;8.576;2023-06-10T06:17:35;6.95;;;6.18;;
16826;SDS011;8530;49.540;8.576;2023-06-10T06:20:02;5.60;;;4.88;;
16826;SDS011;8530;49.540;8.576;2023-06-10T06:22:29;7.70;;;5.57;;
16826;SDS011;8530;49.540;8.576;2023-06-10T06:24:56;6.00;;;5.50;;
16826;SDS011;8530;49.540;8.576;2023-06-10T06:27:23;5.25;;;4.80;;
16826;SDS011;8530;49.540;8.576;2023-06-10T06:29:51;7.00;;;4.82;;
16826;SDS011;8530;49.540;8.576;2023-06-10T06:32:17;5.75;;;4.95;;
16826;SDS011;8530;49.540;8.576;2023-06-10T06:34:44;4.78;;;4.28;;
16826;SDS011;8530;49.540;8.576;2023-06-10T06:37:11;5.40;;;4.90;;
16826;SDS011;8530;49.540;8.576;2023-06-10T06:39:37;5.32;;;4.25;;
16826;SDS011;8530;49.540;8.576;2023-06-10T06:42:04;4.75;;;4.15;;
16826;SDS011;8530;49.540;8.576;2023-06-10T06:44:31;5.30;;;4.32;;
16826;SDS011;8530;49.540;8.576;2023-06-10T06:46:59;4.03;;;3.70;;
16826;SDS011;8530;49.540;8.576;2023-06-10T06:49:26;6.20;;;4.10;;
16826;SDS011;8530;49.540;8.576;2023-06-10T06:51:53;5.07;;;4.60;;
16826;SDS011;8530;49.540;8.576;2023-06-10T06:54:19;4.07;;;3.67;;
16826;SDS011;8530;49.540;8.576;2023-06-10T06:56:46;4.32;;;3.92;;
16826;SDS011;8530;49.540;8.576;2023-06-10T06:59:13;3.75;;;3.45;;
16826;SDS011;8530;49.540;8.576;2023-06-10T07:01:39;4.75;;;4.35;;
16826;SDS011;8530;49.540;8.576;2023-06-10T07:04:08;6.05;;;3.20;;
16826;SDS011;8530;49.540;8.576;2023-06-10T07:06:35;4.85;;;3.70;;
16826;SDS011;8530;49.540;8.576;2023-06-10T07:09:03;5.13;;;4.18;;
16826;SDS011;8530;49.540;8.576;2023-06-10T07:11:30;4.00;;;3.40;;
16826;SDS011;8530;49.540;8.576;2023-06-10T07:13:56;3.90;;;3.60;;
16826;SDS011;8530;49.540;8.576;2023-06-10T07:16:23;4.10;;;3.70;;
16826;SDS011;8530;49.540;8.576;2023-06-10T07:18:50;4.32;;;3.60;;
16826;SDS011;8530;49.540;8.576;2023-06-10T07:21:19;4.22;;;3.92;;
16826;SDS011;8530;49.540;8.576;2023-06-10T07:23:47;3.92;;;3.63;;
16826;SDS011;8530;49.540;8.576;2023-06-10T07:26:14;4.25;;;3.85;;
16826;SDS011;8530;49.540;8.576;2023-06-10T07:28:41;4.28;;;3.47;;
16826;SDS011;8530;49.540;8.576;2023-06-10T07:31:08;4.88;;;3.45;;
16826;SDS011;8530;49.540;8.576;2023-06-10T07:33:36;3.40;;;3.10;;
16826;SDS011;8530;49.540;8.576;2023-06-10T07:36:04;4.57;;;3.55;;
16826;SDS011;8530;49.540;8.576;2023-06-10T07:38:32;3.83;;;3.53;;
16826;SDS011;8530;49.540;8.576;2023-06-10T07:40:59;4.82;;;3.20;;
16826;SDS011;8530;49.540;8.576;2023-06-10T07:43:25;3.58;;;3.25;;
16826;SDS011;8530;49.540;8.576;2023-06-10T07:45:52;4.45;;;3.60;;
16826;SDS011;8530;49.540;8.576;2023-06-10T07:48:19;3.90;;;3.50;;
16826;SDS011;8530;49.540;8.576;2023-06-10T07:50:45;4.35;;;3.53;;
16826;SDS011;8530;49.540;8.576;2023-06-10T07:53:12;28.67;;;4.47;;
16826;SDS011;8530;49.540;8.576;2023-06-10T07:55:40;3.90;;;3.53;;
16826;SDS011;8530;49.540;8.576;2023-06-10T07:58:07;3.58;;;3.28;;
16826;SDS011;8530;49.540;8.576;2023-06-10T08:00:34;4.20;;;3.80;;
16826;SDS011;8530;49.540;8.576;2023-06-10T08:03:00;4.05;;;3.60;;
16826;SDS011;8530;49.540;8.576;2023-06-10T08:05:27;3.85;;;3.45;;
16826;SDS011;8530;49.540;8.576;2023-06-10T08:07:54;3.88;;;3.58;;
16826;SDS011;8530;49.540;8.576;2023-06-10T08:10:21;5.75;;;4.25;;
16826;SDS011;8530;49.540;8.576;2023-06-10T08:12:49;4.65;;;4.22;;
16826;SDS011;8530;49.540;8.576;2023-06-10T08:15:16;4.55;;;4.15;;
16826;SDS011;8530;49.540;8.576;2023-06-10T08:17:43;6.30;;;4.22;;
16826;SDS011;8530;49.540;8.576;2023-06-10T08:20:10;4.68;;;4.18;;
16826;SDS011;8530;49.540;8.576;2023-06-10T08:22:37;4.97;;;4.32;;
16826;SDS011;8530;49.540;8.576;2023-06-10T08:25:04;5.00;;;4.50;;
16826;SDS011;8530;49.540;8.576;2023-06-10T08:27:32;7.20;;;4.60;;
16826;SDS011;8530;49.540;8.576;2023-06-10T08:30:00;7.47;;;5.18;;
16826;SDS011;8530;49.540;8.576;2023-06-10T08:32:27;5.55;;;5.05;;
16826;SDS011;8530;49.540;8.576;2023-06-10T08:34:54;11.05;;;5.20;;
16826;SDS011;8530;49.540;8.576;2023-06-10T08:37:21;6.45;;;5.70;;
16826;SDS011;8530;49.540;8.576;2023-06-10T08:39:48;5.70;;;4.40;;
16826;SDS011;8530;49.540;8.576;2023-06-10T08:42:17;7.18;;;5.00;;
16826;SDS011;8530;49.540;8.576;2023-06-10T08:44:50;9.30;;;5.40;;
16826;SDS011;8530;49.540;8.576;2023-06-10T08:47:20;4.97;;;4.50;;
16826;SDS011;8530;49.540;8.576;2023-06-10T08:49:49;6.55;;;5.32;;
16826;SDS011;8530;49.540;8.576;2023-06-10T08:52:17;5.65;;;4.63;;
16826;SDS011;8530;49.540;8.576;2023-06-10T08:54:47;6.95;;;5.45;;
16826;SDS011;8530;49.540;8.576;2023-06-10T08:57:18;8.90;;;5.10;;
16826;SDS011;8530;49.540;8.576;2023-06-10T08:59:46;6.45;;;5.45;;
16826;SDS011;8530;49.540;8.576;2023-06-10T09:02:14;7.10;;;5.50;;
16826;SDS011;8530;49.540;8.576;2023-06-10T09:04:46;12.83;;;5.20;;
16826;SDS011;8530;49.540;8.576;2023-06-10T09:07:13;7.30;;;5.20;;
16826;SDS011;8530;49.540;8.576;2023-06-10T09:09:41;7.70;;;4.83;;
16826;SDS011;8530;49.540;8.576;2023-06-10T09:12:09;7.37;;;6.00;;
16826;SDS011;8530;49.540;8.576;2023-06-10T09:14:36;6.33;;;5.63;;
16826;SDS011;8530;49.540;8.576;2023-06-10T09:17:04;7.93;;;6.83;;
16826;SDS011;8530;49.540;8.576;2023-06-10T09:19:31;6.67;;;5.53;;
16826;SDS011;8530;49.540;8.576;2023-06-10T09:22:00;15.13;;;6.70;;
16826;SDS011;8530;49.540;8.576;2023-06-10T09:24:26;13.30;;;6.83;;
16826;SDS011;8530;49.540;8.576;2023-06-10T09:27:01;14.20;;;6.80;;
16826;SDS011;8530;49.540;8.576;2023-06-10T09:29:30;7.33;;;5.97;;
16826;SDS011;8530;49.540;8.576;2023-06-10T09:31:56;7.60;;;6.80;;
16826;SDS011;8530;49.540;8.576;2023-06-10T09:34:25;8.13;;;5.63;;
16826;SDS011;8530;49.540;8.576;2023-06-10T09:36:52;8.73;;;5.90;;
16826;SDS011;8530;49.540;8.576;2023-06-10T09:39:22;6.83;;;5.17;;
16826;SDS011;8530;49.540;8.576;2023-06-10T09:41:48;6.77;;;4.83;;
16826;SDS011;8530;49.540;8.576;2023-06-10T09:44:16;7.13;;;4.97;;
16826;SDS011;8530;49.540;8.576;2023-06-10T09:46:44;9.00;;;6.10;;
16826;SDS011;8530;49.540;8.576;2023-06-10T09:49:12;7.37;;;5.97;;
16826;SDS011;8530;49.540;8.576;2023-06-10T09:51:41;7.07;;;5.10;;
16826;SDS011;8530;49.540;8.576;2023-06-10T09:54:15;10.40;;;5.70;;
16826;SDS011;8530;49.540;8.576;2023-06-10T09:56:44;5.77;;;5.13;;
16826;SDS011;8530;49.540;8.576;2023-06-10T09:59:13;7.80;;;5.70;;
16826;SDS011;8530;49.540;8.576;2023-06-10T10:01:41;11.10;;;4.93;;
16826;SDS011;8530;49.540;8.576;2023-06-10T10:04:07;7.30;;;5.27;;
16826;SDS011;8530;49.540;8.576;2023-06-10T10:06:34;5.70;;;5.10;;
16826;SDS011;8530;49.540;8.576;2023-06-10T10:09:02;6.23;;;5.63;;
16826;SDS011;8530;49.540;8.576;2023-06-10T10:11:30;10.83;;;6.03;;
16826;SDS011;8530;49.540;8.576;2023-06-10T10:14:01;6.23;;;5.40;;
16826;SDS011;8530;49.540;8.576;2023-06-10T10:16:33;7.27;;;5.27;;
16826;SDS011;8530;49.540;8.576;2023-06-10T10:19:05;9.17;;;5.90;;
16826;SDS011;8530;49.540;8.576;2023-06-10T10:21:35;6.43;;;5.80;;
16826;SDS011;8530;49.540;8.576;2023-06-10T10:24:07;7.63;;;5.97;;
16826;SDS011;8530;49.540;8.576;2023-06-10T10:26:41;10.60;;;5.67;;
16826;SDS011;8530;49.540;8.576;2023-06-10T10:29:10;5.50;;;4.80;;
16826;SDS011;8530;49.540;8.576;2023-06-10T10:31:41;6.97;;;5.40;;
16826;SDS011;8530;49.540;8.576;2023-06-10T10:34:12;6.07;;;5.20;;
16826;SDS011;8530;49.540;8.576;2023-06-10T10:36:41;5.30;;;4.80;;
16826;SDS011;8530;49.540;8.576;2023-06-10T10:39:08;5.70;;;4.70;;
16826;SDS011;8530;49.540;8.576;2023-06-10T10:41:36;7.67;;;5.07;;
16826;SDS011;8530;49.540;8.576;2023-06-10T10:44:04;7.10;;;5.00;;
16826;SDS011;8530;49.540;8.576;2023-06-10T10:46:39;7.60;;;5.03;;
16826;SDS011;8530;49.540;8.576;2023-06-10T10:49:08;6.10;;;4.97;;
16826;SDS011;8530;49.540;8.576;2023-06-10T10:51:36;4.27;;;3.83;;
16826;SDS011;8530;49.540;8.576;2023-06-10T10:57:12;8.00;;;4.10;;
16826;SDS011;8530;49.540;8.576;2023-06-10T10:59:44;4.80;;;4.07;;
16826;SDS011;8530;49.540;8.576;2023-06-10T11:02:35;6.00;;;4.80;;
16826;SDS011;8530;49.540;8.576;2023-06-10T11:05:05;6.63;;;4.93;;
16826;SDS011;8530;49.540;8.576;2023-06-10T11:07:33;6.40;;;4.77;;
16826;SDS011;8530;49.540;8.576;2023-06-10T11:10:02;4.67;;;4.27;;
16826;SDS011;8530;49.540;8.576;2023-06-10T11:12:41;6.13;;;4.50;;
16826;SDS011;8530;49.540;8.576;2023-06-10T11:15:14;5.17;;;4.30;;
16826;SDS011;8530;49.540;8.576;2023-06-10T11:23:25;6.77;;;5.10;;
16826;SDS011;8530;49.540;8.576;2023-06-10T11:26:08;6.82;;;4.82;;
16826;SDS011;8530;49.540;8.576;2023-06-10T11:28:39;4.60;;;4.07;;
16826;SDS011;8530;49.540;8.576;2023-06-10T11:31:08;6.23;;;3.40;;
16826;SDS011;8530;49.540;8.576;2023-06-10T11:33:45;4.27;;;3.87;;
16826;SDS011;8530;49.540;8.576;2023-06-10T11:36:13;7.20;;;3.83;;
16826;SDS011;8530;49.540;8.576;2023-06-10T11:38:40;5.10;;;4.60;;
16826;SDS011;8530;49.540;8.576;2023-06-10T11:41:07;6.33;;;4.57;;
16826;SDS011;8530;49.540;8.576;2023-06-10T11:43:34;6.30;;;4.40;;
16826;SDS011;8530;49.540;8.576;2023-06-10T11:46:01;4.40;;;4.00;;
16826;SDS011;8530;49.540;8.576;2023-06-10T11:48:27;5.30;;;4.00;;
16826;SDS011;8530;49.540;8.576;2023-06-10T11:50:56;5.83;;;5.23;;
16826;SDS011;8530;49.540;8.576;2023-06-10T11:53:23;4.77;;;4.37;;
16826;SDS011;8530;49.540;8.576;2023-06-10T11:55:50;5.90;;;4.23;;
16826;SDS011;8530;49.540;8.576;2023-06-10T11:58:18;7.20;;;3.30;;
16826;SDS011;8530;49.540;8.576;2023-06-10T12:00:46;4.87;;;4.23;;
16826;SDS011;8530;49.540;8.576;2023-06-10T12:03:13;4.90;;;4.20;;
16826;SDS011;8530;49.540;8.576;2023-06-10T12:05:41;5.00;;;4.33;;
16826;SDS011;8530;49.540;8.576;2023-06-10T12:08:25;4.53;;;3.93;;
16826;SDS011;8530;49.540;8.576;2023-06-10T12:10:52;7.40;;;4.60;;
16826;SDS011;8530;49.540;8.576;2023-06-10T12:13:19;6.03;;;4.40;;
16826;SDS011;8530;49.540;8.576;2023-06-10T12:15:48;5.40;;;4.70;;
16826;SDS011;8530;49.540;8.576;2023-06-10T12:18:17;5.90;;;4.13;;
16826;SDS011;8530;49.540;8.576;2023-06-10T12:20:45;7.43;;;5.33;;
16826;SDS011;8530;49.540;8.576;2023-06-10T12:23:15;5.75;;;3.58;;
16826;SDS011;8530;49.540;8.576;2023-06-10T12:25:49;7.28;;;4.65;;
16826;SDS011;8530;49.540;8.576;2023-06-10T12:28:20;7.77;;;4.20;;
16826;SDS011;8530;49.540;8.576;2023-06-10T12:30:47;4.20;;;3.78;;
16826;SDS011;8530;49.540;8.576;2023-06-10T12:33:17;5.22;;;4.53;;
16826;SDS011;8530;49.540;8.576;2023-06-10T12:35:47;5.00;;;4.30;;
16826;SDS011;8530;49.540;8.576;2023-06-10T12:38:18;4.50;;;3.83;;
16826;SDS011;8530;49.540;8.576;2023-06-10T12:40:47;4.80;;;4.30;;
16826;SDS011;8530;49.540;8.576;2023-06-10T12:43:19;4.38;;;3.97;;
16826;SDS011;8530;49.540;8.576;2023-06-10T12:45:46;4.33;;;3.93;;
16826;SDS011;8530;49.540;8.576;2023-06-10T12:48:17;7.27;;;3.57;;
16826;SDS011;8530;49.540;8.576;2023-06-10T12:50:49;4.50;;;4.10;;
16826;SDS011;8530;49.540;8.576;2023-06-10T12:53:19;5.27;;;4.00;;
16826;SDS011;8530;49.540;8.576;2023-06-10T12:55:48;8.07;;;4.83;;
16826;SDS011;8530;49.540;8.576;2023-06-10T12:58:15;13.87;;;4.97;;
16826;SDS011;8530;49.540;8.576;2023-06-10T13:00:42;6.60;;;4.13;;
16826;SDS011;8530;49.540;8.576;2023-06-10T13:03:09;5.45;;;4.95;;
16826;SDS011;8530;49.540;8.576;2023-06-10T13:05:36;6.22;;;5.00;;
16826;SDS011;8530;49.540;8.576;2023-06-10T13:08:04;6.53;;;4.30;;
16826;SDS011;8530;49.540;8.576;2023-06-10T13:10:32;4.23;;;3.80;;
16826;SDS011;8530;49.540;8.576;2023-06-10T13:13:00;6.72;;;4.47;;
16826;SDS011;8530;49.540;8.576;2023-06-10T13:15:27;4.82;;;4.35;;
16826;SDS011;8530;49.540;8.576;2023-06-10T13:17:54;7.38;;;4.10;;
16826;SDS011;8530;49.540;8.576;2023-06-10T13:20:21;5.95;;;4.15;;
16826;SDS011;8530;49.540;8.576;2023-06-10T13:22:48;5.32;;;4.53;;
16826;SDS011;8530;49.540;8.576;2023-06-10T13:25:15;9.98;;;4.88;;
16826;SDS011;8530;49.540;8.576;2023-06-10T13:27:43;4.78;;;4.28;;
16826;SDS011;8530;49.540;8.576;2023-06-10T13:30:10;9.93;;;5.20;;
16826;SDS011;8530;49.540;8.576;2023-06-10T13:32:37;6.57;;;4.60;;
16826;SDS011;8530;49.540;8.576;2023-06-10T13:35:04;6.00;;;4.50;;
16826;SDS011;8530;49.540;8.576;2023-06-10T13:37:32;4.45;;;3.88;;
16826;SDS011;8530;49.540;8.576;2023-06-10T13:39:59;5.18;;;4.25;;
16826;SDS011;8530;49.540;8.576;2023-06-10T13:42:26;5.10;;;4.32;;
16826;SDS011;8530;49.540;8.576;2023-06-10T13:44:55;3.70;;;3.35;;
16826;SDS011;8530;49.540;8.576;2023-06-10T13:47:22;4.25;;;3.75;;
16826;SDS011;8530;49.540;8.576;2023-06-10T13:49:49;5.03;;;4.00;;
16826;SDS011;8530;49.540;8.576;2023-06-10T13:52:16;4.80;;;4.07;;
16826;SDS011;8530;49.540;8.576;2023-06-10T13:54:43;4.30;;;3.65;;
16826;SDS011;8530;49.540;8.576;2023-06-10T13:57:09;4.40;;;4.00;;
16826;SDS011;8530;49.540;8.576;2023-06-10T13:59:36;6.05;;;4.30;;
16826;SDS011;8530;49.540;8.576;2023-06-10T14:02:04;5.07;;;3.67;;
16826;SDS011;8530;49.540;8.576;2023-06-10T14:04:31;4.82;;;4.40;;
16826;SDS011;8530;49.540;8.576;2023-06-10T14:06:58;3.95;;;3.20;;
16826;SDS011;8530;49.540;8.576;2023-06-10T14:09:25;4.45;;;4.05;;
16826;SDS011;8530;49.540;8.576;2023-06-10T14:11:52;4.72;;;3.97;;
16826;SDS011;8530;49.540;8.576;2023-06-10T14:14:19;4.80;;;4.32;;
16826;SDS011;8530;49.540;8.576;2023-06-10T14:16:47;4.22;;;3.83;;
16826;SDS011;8530;49.540;8.576;2023-06-10T14:19:15;4.97;;;3.90;;
16826;SDS011;8530;49.540;8.576;2023-06-10T14:21:42;5.25;;;4.05;;
16826;SDS011;8530;49.540;8.576;2023-06-10T14:24:08;4.82;;;3.95;;
16826;SDS011;8530;49.540;8.576;2023-06-10T14:26:35;5.50;;;4.22;;
16826;SDS011;8530;49.540;8.576;2023-06-10T14:29:02;4.10;;;3.58;;
16826;SDS011;8530;49.540;8.576;2023-06-10T14:31:29;4.65;;;4.03;;
16826;SDS011;8530;49.540;8.576;2023-06-10T14:33:55;5.05;;;4.25;;
16826;SDS011;8530;49.540;8.576;2023-06-10T14:36:23;5.40;;;4.45;;
16826;SDS011;8530;49.540;8.576;2023-06-10T14:38:50;9.60;;;4.25;;
16826;SDS011;8530;49.540;8.576;2023-06-10T14:41:17;4.70;;;3.95;;
16826;SDS011;8530;49.540;8.576;2023-06-10T14:43:43;4.45;;;3.80;;
16826;SDS011;8530;49.540;8.576;2023-06-10T14:46:10;8.00;;;4.13;;
16826;SDS011;8530;49.540;8.576;2023-06-10T14:48:37;4.20;;;3.80;;
16826;SDS011;8530;49.540;8.576;2023-06-10T14:51:03;4.55;;;4.05;;
16826;SDS011;8530;49.540;8.576;2023-06-10T14:53:31;4.80;;;4.30;;
16826;SDS011;8530;49.540;8.576;2023-06-10T14:55:58;4.55;;;3.63;;
16826;SDS011;8530;49.540;8.576;2023-06-10T14:58:25;6.80;;;4.45;;
16826;SDS011;8530;49.540;8.576;2023-06-10T15:00:51;4.88;;;4.38;;
16826;SDS011;8530;49.540;8.576;2023-06-10T15:03:18;6.50;;;4.38;;
16826;SDS011;8530;49.540;8.576;2023-06-10T15:05:45;5.03;;;4.32;;
16826;SDS011;8530;49.540;8.576;2023-06-10T15:08:12;7.53;;;4.93;;
16826;SDS011;8530;49.540;8.576;2023-06-10T15:10:40;4.53;;;4.13;;